sensor_id;sensor_type;location;lat;lon;timestamp;P1;durP1;ratioP1;P2;durP2;ratioP2
66979;SDS011;54048;51.468;-2.572;2022-09-16T00:02:17;2.03;;;1.20;;
66979;SDS011;54048;51.468;-2.572;2022-09-16T00:04:42;3.20;;;1.30;;
66979;SDS011;54048;51.468;-2.572;2022-09-16T00:07:08;2.83;;;1.25;;
66979;SDS011;54048;51.468;-2.572;2022-09-16T00:09:35;4.15;;;1.20;;
66979;SDS011;54048;51.468;-2.572;2022-09-16T00:12:01;3.17;;;1.30;;
66979;SDS011;54048;51.468;-2.572;2022-09-16T00:14:27;5.18;;;1.45;;
66979;SDS011;54048;51.468;-2.572;2022-09-16T00:16:52;4.25;;;2.00;;
66979;SDS011;54048;51.468;-2.572;2022-09-16T00:19:18;6.22;;;2.75;;
66979;SDS011;54048;51.468;-2.572;2022-09-16T00:21:45;7.57;;;2.30;;
66979;SDS011;54048;51.468;-2.572;2022-09-16T00:24:12;2.35;;;1.73;;
66979;SDS011;54048;51.468;-2.572;2022-09-16T00:26:39;3.33;;;1.75;;
66979;SDS011;54048;51.468;-2.572;2022-09-16T00:29:05;5.22;;;2.00;;
66979;SDS011;54048;51.468;-2.572;2022-09-16T00:31:30;5.07;;;1.70;;
66979;SDS011;54048;51.468;-2.572;2022-09-16T00:33:56;3.30;;;1.75;;
66979;SDS011;54048;51.468;-2.572;2022-09-16T00:36:21;7.00;;;2.10;;
66979;SDS011;54048;51.468;-2.572;2022-09-16T00:38:50;6.88;;;1.92;;
66979;SDS011;54048;51.468;-2.572;2022-09-16T00:41:18;6.15;;;2.10;;
66979;SDS011;54048;51.468;-2.572;2022-09-16T00:43:46;6.70;;;1.90;;
66979;SDS011;54048;51.468;-2.572;2022-09-16T00:46:17;4.70;;;1.65;;
66979;SDS011;54048;51.468;-2.572;2022-09-16T00:48:45;2.95;;;1.40;;
66979;SDS011;54048;51.468;-2.572;2022-09-16T00:51:10;2.58;;;1.52;;
66979;SDS011;54048;51.468;-2.572;2022-09-16T00:53:41;4.03;;;1.90;;
66979;SDS011;54048;51.468;-2.572;2022-09-16T00:56:10;3.63;;;1.83;;
66979;SDS011;54048;51.468;-2.572;2022-09-16T00:58:45;3.85;;;1.58;;
66979;SDS011;54048;51.468;-2.572;2022-09-16T01:01:13;5.80;;;1.90;;
66979;SDS011;54048;51.468;-2.572;2022-09-16T01:03:41;6.53;;;2.03;;
66979;SDS011;54048;51.468;-2.572;2022-09-16T01:06:09;7.75;;;1.98;;
66979;SDS011;54048;51.468;-2.572;2022-09-16T01:08:37;9.20;;;2.40;;
66979;SDS011;54048;51.468;-2.572;2022-09-16T01:11:03;8.48;;;2.80;;
66979;SDS011;54048;51.468;-2.572;2022-09-16T01:13:28;6.88;;;2.60;;
66979;SDS011;54048;51.468;-2.572;2022-09-16T01:15:57;7.82;;;2.40;;
66979;SDS011;54048;51.468;-2.572;2022-09-16T01:18:54;8.95;;;3.00;;
66979;SDS011;54048;51.468;-2.572;2022-09-16T01:21:42;9.10;;;3.42;;
66979;SDS011;54048;51.468;-2.572;2022-09-16T01:30:06;5.28;;;2.50;;
66979;SDS011;54048;51.468;-2.572;2022-09-16T01:41:20;7.45;;;2.15;;
66979;SDS011;54048;51.468;-2.572;2022-09-16T01:44:16;4.13;;;1.95;;
66979;SDS011;54048;51.468;-2.572;2022-09-16T01:55:02;4.95;;;1.60;;
66979;SDS011;54048;51.468;-2.572;2022-09-16T01:57:34;6.10;;;1.65;;
66979;SDS011;54048;51.468;-2.572;2022-09-16T02:00:07;4.93;;;1.50;;
66979;SDS011;54048;51.468;-2.572;2022-09-16T02:02:45;2.35;;;1.85;;
66979;SDS011;54048;51.468;-2.572;2022-09-16T02:05:20;2.13;;;1.33;;
66979;SDS011;54048;51.468;-2.572;2022-09-16T02:07:49;4.05;;;1.50;;
66979;SDS011;54048;51.468;-2.572;2022-09-16T02:10:28;4.50;;;1.70;;
66979;SDS011;54048;51.468;-2.572;2022-09-16T02:12:57;3.38;;;1.52;;
66979;SDS011;54048;51.468;-2.572;2022-09-16T02:15:26;2.80;;;1.83;;
66979;SDS011;54048;51.468;-2.572;2022-09-16T02:17:58;5.28;;;1.55;;
66979;SDS011;54048;51.468;-2.572;2022-09-16T02:22:53;4.30;;;1.42;;
66979;SDS011;54048;51.468;-2.572;2022-09-16T02:25:23;3.63;;;1.67;;
66979;SDS011;54048;51.468;-2.572;2022-09-16T02:27:48;5.10;;;1.38;;
66979;SDS011;54048;51.468;-2.572;2022-09-16T02:30:15;3.30;;;1.80;;
66979;SDS011;54048;51.468;-2.572;2022-09-16T02:32:43;4.68;;;1.50;;
66979;SDS011;54048;51.468;-2.572;2022-09-16T02:35:11;8.32;;;1.73;;
66979;SDS011;54048;51.468;-2.572;2022-09-16T02:37:41;3.10;;;1.30;;
66979;SDS011;54048;51.468;-2.572;2022-09-16T02:40:14;2.00;;;1.30;;
66979;SDS011;54048;51.468;-2.572;2022-09-16T02:43:12;2.15;;;1.13;;
66979;SDS011;54048;51.468;-2.572;2022-09-16T02:48:30;4.78;;;1.10;;
66979;SDS011;54048;51.468;-2.572;2022-09-16T02:51:08;3.92;;;1.25;;
66979;SDS011;54048;51.468;-2.572;2022-09-16T02:53:51;3.58;;;1.25;;
66979;SDS011;54048;51.468;-2.572;2022-09-16T02:58:56;2.88;;;1.20;;
66979;SDS011;54048;51.468;-2.572;2022-09-16T03:01:22;1.50;;;1.20;;
66979;SDS011;54048;51.468;-2.572;2022-09-16T03:03:48;4.07;;;1.35;;
66979;SDS011;54048;51.468;-2.572;2022-09-16T03:06:19;5.20;;;1.10;;
66979;SDS011;54048;51.468;-2.572;2022-09-16T03:08:46;2.95;;;1.20;;
66979;SDS011;54048;51.468;-2.572;2022-09-16T03:11:23;5.13;;;1.20;;
66979;SDS011;54048;51.468;-2.572;2022-09-16T03:14:06;2.50;;;1.25;;
66979;SDS011;54048;51.468;-2.572;2022-09-16T03:25:09;3.85;;;1.10;;
66979;SDS011;54048;51.468;-2.572;2022-09-16T03:31:25;2.38;;;1.15;;
66979;SDS011;54048;51.468;-2.572;2022-09-16T03:33:35;3.38;;;1.08;;
66979;SDS011;54048;51.468;-2.572;2022-09-16T03:36:06;3.83;;;1.20;;
66979;SDS011;54048;51.468;-2.572;2022-09-16T03:38:34;2.75;;;1.27;;
66979;SDS011;54048;51.468;-2.572;2022-09-16T03:41:03;6.35;;;1.40;;
66979;SDS011;54048;51.468;-2.572;2022-09-16T03:43:30;2.38;;;1.00;;
66979;SDS011;54048;51.468;-2.572;2022-09-16T03:45:56;2.85;;;1.13;;
66979;SDS011;54048;51.468;-2.572;2022-09-16T03:48:21;4.47;;;1.25;;
66979;SDS011;54048;51.468;-2.572;2022-09-16T03:50:47;3.70;;;1.27;;
66979;SDS011;54048;51.468;-2.572;2022-09-16T03:53:12;2.55;;;0.95;;
66979;SDS011;54048;51.468;-2.572;2022-09-16T03:55:37;2.03;;;1.13;;
66979;SDS011;54048;51.468;-2.572;2022-09-16T03:58:03;4.07;;;1.23;;
66979;SDS011;54048;51.468;-2.572;2022-09-16T04:00:28;7.40;;;1.70;;
66979;SDS011;54048;51.468;-2.572;2022-09-16T04:02:54;2.30;;;1.20;;
66979;SDS011;54048;51.468;-2.572;2022-09-16T04:05:19;5.53;;;1.30;;
66979;SDS011;54048;51.468;-2.572;2022-09-16T04:07:47;4.07;;;1.17;;
66979;SDS011;54048;51.468;-2.572;2022-09-16T04:10:13;2.97;;;1.30;;
66979;SDS011;54048;51.468;-2.572;2022-09-16T04:12:39;5.93;;;1.25;;
66979;SDS011;54048;51.468;-2.572;2022-09-16T04:15:04;4.32;;;1.40;;
66979;SDS011;54048;51.468;-2.572;2022-09-16T04:17:30;1.63;;;1.13;;
66979;SDS011;54048;51.468;-2.572;2022-09-16T04:19:56;3.80;;;1.25;;
66979;SDS011;54048;51.468;-2.572;2022-09-16T04:22:22;4.18;;;1.33;;
66979;SDS011;54048;51.468;-2.572;2022-09-16T04:24:47;7.28;;;1.50;;
66979;SDS011;54048;51.468;-2.572;2022-09-16T04:27:13;4.32;;;1.52;;
66979;SDS011;54048;51.468;-2.572;2022-09-16T04:29:38;6.40;;;1.50;;
66979;SDS011;54048;51.468;-2.572;2022-09-16T04:32:04;3.85;;;1.40;;
66979;SDS011;54048;51.468;-2.572;2022-09-16T04:34:29;1.95;;;1.10;;
66979;SDS011;54048;51.468;-2.572;2022-09-16T04:36:56;4.13;;;1.30;;
66979;SDS011;54048;51.468;-2.572;2022-09-16T04:39:22;2.20;;;1.25;;
66979;SDS011;54048;51.468;-2.572;2022-09-16T04:41:47;3.00;;;1.00;;
66979;SDS011;54048;51.468;-2.572;2022-09-16T04:44:13;4.68;;;1.38;;
66979;SDS011;54048;51.468;-2.572;2022-09-16T04:46:39;2.75;;;1.60;;
66979;SDS011;54048;51.468;-2.572;2022-09-16T04:49:04;5.90;;;1.48;;
66979;SDS011;54048;51.468;-2.572;2022-09-16T04:51:30;3.45;;;1.40;;
66979;SDS011;54048;51.468;-2.572;2022-09-16T04:53:57;3.40;;;1.35;;
66979;SDS011;54048;51.468;-2.572;2022-09-16T04:56:24;4.32;;;1.60;;
66979;SDS011;54048;51.468;-2.572;2022-09-16T04:58:55;3.03;;;1.50;;
66979;SDS011;54048;51.468;-2.572;2022-09-16T05:01:24;5.22;;;1.50;;
66979;SDS011;54048;51.468;-2.572;2022-09-16T05:03:52;3.47;;;1.60;;
66979;SDS011;54048;51.468;-2.572;2022-09-16T05:06:19;3.80;;;1.88;;
66979;SDS011;54048;51.468;-2.572;2022-09-16T05:08:47;5.45;;;2.08;;
66979;SDS011;54048;51.468;-2.572;2022-09-16T05:11:14;5.40;;;1.60;;
66979;SDS011;54048;51.468;-2.572;2022-09-16T05:16:12;4.28;;;1.52;;
66979;SDS011;54048;51.468;-2.572;2022-09-16T05:18:39;4.93;;;1.50;;
66979;SDS011;54048;51.468;-2.572;2022-09-16T05:21:06;6.65;;;1.80;;
66979;SDS011;54048;51.468;-2.572;2022-09-16T05:23:33;7.03;;;2.67;;
66979;SDS011;54048;51.468;-2.572;2022-09-16T05:26:06;4.60;;;1.80;;
66979;SDS011;54048;51.468;-2.572;2022-09-16T05:28:36;4.88;;;1.63;;
66979;SDS011;54048;51.468;-2.572;2022-09-16T05:33:36;5.47;;;1.27;;
66979;SDS011;54048;51.468;-2.572;2022-09-16T05:36:04;2.80;;;1.60;;
66979;SDS011;54048;51.468;-2.572;2022-09-16T05:38:34;6.43;;;1.95;;
66979;SDS011;54048;51.468;-2.572;2022-09-16T05:41:00;5.30;;;1.75;;
66979;SDS011;54048;51.468;-2.572;2022-09-16T05:43:25;5.75;;;2.13;;
66979;SDS011;54048;51.468;-2.572;2022-09-16T05:45:51;7.35;;;2.13;;
66979;SDS011;54048;51.468;-2.572;2022-09-16T05:48:17;4.82;;;1.92;;
66979;SDS011;54048;51.468;-2.572;2022-09-16T05:50:52;5.93;;;2.22;;
66979;SDS011;54048;51.468;-2.572;2022-09-16T05:53:19;4.20;;;2.00;;
66979;SDS011;54048;51.468;-2.572;2022-09-16T05:55:55;8.05;;;2.30;;
66979;SDS011;54048;51.468;-2.572;2022-09-16T05:58:25;7.50;;;2.00;;
66979;SDS011;54048;51.468;-2.572;2022-09-16T06:01:02;7.45;;;2.20;;
66979;SDS011;54048;51.468;-2.572;2022-09-16T06:03:30;4.68;;;2.03;;
66979;SDS011;54048;51.468;-2.572;2022-09-16T06:06:04;4.05;;;1.98;;
66979;SDS011;54048;51.468;-2.572;2022-09-16T06:08:32;4.53;;;1.55;;
66979;SDS011;54048;51.468;-2.572;2022-09-16T06:11:02;3.42;;;1.80;;
66979;SDS011;54048;51.468;-2.572;2022-09-16T06:13:28;11.32;;;1.63;;
66979;SDS011;54048;51.468;-2.572;2022-09-16T06:15:54;5.35;;;1.23;;
66979;SDS011;54048;51.468;-2.572;2022-09-16T06:18:20;5.10;;;1.40;;
66979;SDS011;54048;51.468;-2.572;2022-09-16T06:20:46;5.63;;;1.50;;
66979;SDS011;54048;51.468;-2.572;2022-09-16T06:23:12;2.22;;;1.25;;
66979;SDS011;54048;51.468;-2.572;2022-09-16T06:25:37;5.13;;;1.35;;
66979;SDS011;54048;51.468;-2.572;2022-09-16T06:28:03;9.52;;;2.00;;
66979;SDS011;54048;51.468;-2.572;2022-09-16T06:30:28;11.63;;;3.10;;
66979;SDS011;54048;51.468;-2.572;2022-09-16T06:32:53;5.63;;;2.05;;
66979;SDS011;54048;51.468;-2.572;2022-09-16T06:35:19;10.80;;;2.22;;
66979;SDS011;54048;51.468;-2.572;2022-09-16T06:37:44;7.72;;;2.25;;
66979;SDS011;54048;51.468;-2.572;2022-09-16T06:40:10;3.50;;;2.13;;
66979;SDS011;54048;51.468;-2.572;2022-09-16T06:42:35;4.18;;;1.80;;
66979;SDS011;54048;51.468;-2.572;2022-09-16T06:45:01;3.83;;;1.98;;
66979;SDS011;54048;51.468;-2.572;2022-09-16T06:47:28;7.55;;;1.65;;
66979;SDS011;54048;51.468;-2.572;2022-09-16T06:49:57;2.40;;;1.42;;
66979;SDS011;54048;51.468;-2.572;2022-09-16T06:52:23;5.40;;;1.67;;
66979;SDS011;54048;51.468;-2.572;2022-09-16T06:54:49;3.38;;;1.45;;
66979;SDS011;54048;51.468;-2.572;2022-09-16T06:57:14;3.30;;;1.42;;
66979;SDS011;54048;51.468;-2.572;2022-09-16T06:59:40;4.80;;;1.35;;
66979;SDS011;54048;51.468;-2.572;2022-09-16T07:02:06;4.15;;;1.35;;
66979;SDS011;54048;51.468;-2.572;2022-09-16T07:04:32;1.00;;;0.80;;
66979;SDS011;54048;51.468;-2.572;2022-09-16T07:06:59;4.90;;;1.45;;
66979;SDS011;54048;51.468;-2.572;2022-09-16T07:09:24;2.50;;;1.08;;
66979;SDS011;54048;51.468;-2.572;2022-09-16T07:11:50;7.80;;;1.40;;
66979;SDS011;54048;51.468;-2.572;2022-09-16T07:14:15;1.25;;;0.88;;
66979;SDS011;54048;51.468;-2.572;2022-09-16T07:16:41;6.97;;;1.27;;
66979;SDS011;54048;51.468;-2.572;2022-09-16T07:19:06;4.28;;;0.90;;
66979;SDS011;54048;51.468;-2.572;2022-09-16T07:21:31;1.88;;;0.70;;
66979;SDS011;54048;51.468;-2.572;2022-09-16T07:23:58;1.65;;;0.70;;
66979;SDS011;54048;51.468;-2.572;2022-09-16T07:26:25;1.42;;;0.82;;
66979;SDS011;54048;51.468;-2.572;2022-09-16T07:28:52;5.80;;;0.80;;
66979;SDS011;54048;51.468;-2.572;2022-09-16T07:31:19;2.03;;;1.00;;
66979;SDS011;54048;51.468;-2.572;2022-09-16T07:33:48;2.45;;;0.80;;
66979;SDS011;54048;51.468;-2.572;2022-09-16T07:36:15;5.60;;;0.70;;
66979;SDS011;54048;51.468;-2.572;2022-09-16T07:38:42;3.40;;;1.00;;
66979;SDS011;54048;51.468;-2.572;2022-09-16T07:43:35;2.58;;;0.73;;
66979;SDS011;54048;51.468;-2.572;2022-09-16T07:46:01;1.90;;;0.80;;
66979;SDS011;54048;51.468;-2.572;2022-09-16T07:48:30;3.17;;;0.88;;
66979;SDS011;54048;51.468;-2.572;2022-09-16T07:50:57;4.75;;;1.90;;
66979;SDS011;54048;51.468;-2.572;2022-09-16T07:53:27;4.97;;;1.00;;
66979;SDS011;54048;51.468;-2.572;2022-09-16T07:55:54;3.42;;;0.80;;
66979;SDS011;54048;51.468;-2.572;2022-09-16T07:58:20;2.97;;;0.80;;
66979;SDS011;54048;51.468;-2.572;2022-09-16T08:00:46;3.50;;;1.00;;
66979;SDS011;54048;51.468;-2.572;2022-09-16T08:03:12;3.88;;;0.80;;
66979;SDS011;54048;51.468;-2.572;2022-09-16T08:05:38;3.05;;;0.85;;
66979;SDS011;54048;51.468;-2.572;2022-09-16T08:08:04;1.50;;;0.60;;
66979;SDS011;54048;51.468;-2.572;2022-09-16T08:10:29;5.28;;;0.82;;
66979;SDS011;54048;51.468;-2.572;2022-09-16T08:12:54;3.33;;;0.85;;
66979;SDS011;54048;51.468;-2.572;2022-09-16T08:15:20;4.20;;;1.17;;
66979;SDS011;54048;51.468;-2.572;2022-09-16T08:17:45;4.13;;;0.60;;
66979;SDS011;54048;51.468;-2.572;2022-09-16T08:20:11;4.65;;;0.70;;
66979;SDS011;54048;51.468;-2.572;2022-09-16T08:22:36;3.28;;;0.68;;
66979;SDS011;54048;51.468;-2.572;2022-09-16T08:25:02;1.65;;;0.70;;
66979;SDS011;54048;51.468;-2.572;2022-09-16T08:27:28;1.88;;;0.82;;
66979;SDS011;54048;51.468;-2.572;2022-09-16T08:29:53;3.10;;;0.80;;
66979;SDS011;54048;51.468;-2.572;2022-09-16T08:32:18;4.45;;;0.80;;
66979;SDS011;54048;51.468;-2.572;2022-09-16T08:34:44;3.88;;;1.10;;
66979;SDS011;54048;51.468;-2.572;2022-09-16T08:37:09;4.70;;;0.90;;
66979;SDS011;54048;51.468;-2.572;2022-09-16T08:39:34;4.53;;;0.80;;
66979;SDS011;54048;51.468;-2.572;2022-09-16T08:44:47;5.05;;;0.80;;
66979;SDS011;54048;51.468;-2.572;2022-09-16T08:49:59;5.07;;;0.80;;
66979;SDS011;54048;51.468;-2.572;2022-09-16T08:52:31;2.47;;;0.82;;
66979;SDS011;54048;51.468;-2.572;2022-09-16T08:55:21;4.82;;;1.02;;
66979;SDS011;54048;51.468;-2.572;2022-09-16T08:57:52;2.08;;;0.70;;
66979;SDS011;54048;51.468;-2.572;2022-09-16T09:00:20;5.03;;;0.60;;
66979;SDS011;54048;51.468;-2.572;2022-09-16T09:05:31;3.05;;;0.70;;
66979;SDS011;54048;51.468;-2.572;2022-09-16T09:08:29;3.63;;;1.00;;
66979;SDS011;54048;51.468;-2.572;2022-09-16T09:25:06;1.50;;;0.57;;
66979;SDS011;54048;51.468;-2.572;2022-09-16T09:30:29;3.83;;;0.80;;
66979;SDS011;54048;51.468;-2.572;2022-09-16T09:38:40;0.73;;;0.52;;
66979;SDS011;54048;51.468;-2.572;2022-09-16T09:41:30;2.90;;;0.60;;
66979;SDS011;54048;51.468;-2.572;2022-09-16T09:47:12;1.17;;;0.50;;
66979;SDS011;54048;51.468;-2.572;2022-09-16T09:49:42;2.17;;;0.60;;
66979;SDS011;54048;51.468;-2.572;2022-09-16T09:54:42;1.63;;;0.50;;
66979;SDS011;54048;51.468;-2.572;2022-09-16T09:57:17;0.70;;;0.50;;
66979;SDS011;54048;51.468;-2.572;2022-09-16T10:02:39;2.65;;;0.70;;
66979;SDS011;54048;51.468;-2.572;2022-09-16T10:05:06;1.20;;;0.50;;
66979;SDS011;54048;51.468;-2.572;2022-09-16T10:07:42;2.33;;;0.70;;
66979;SDS011;54048;51.468;-2.572;2022-09-16T10:10:15;5.13;;;0.60;;
66979;SDS011;54048;51.468;-2.572;2022-09-16T10:12:44;5.13;;;0.77;;
66979;SDS011;54048;51.468;-2.572;2022-09-16T10:15:43;2.38;;;0.73;;
66979;SDS011;54048;51.468;-2.572;2022-09-16T10:18:07;4.40;;;0.60;;
66979;SDS011;54048;51.468;-2.572;2022-09-16T10:20:37;1.30;;;0.52;;
66979;SDS011;54048;51.468;-2.572;2022-09-16T10:25:40;2.78;;;0.60;;
66979;SDS011;54048;51.468;-2.572;2022-09-16T10:28:21;1.58;;;0.40;;
66979;SDS011;54048;51.468;-2.572;2022-09-16T10:30:50;4.63;;;0.40;;
66979;SDS011;54048;51.468;-2.572;2022-09-16T10:33:21;0.90;;;0.57;;
66979;SDS011;54048;51.468;-2.572;2022-09-16T10:35:51;1.95;;;0.88;;
66979;SDS011;54048;51.468;-2.572;2022-09-16T10:38:22;3.05;;;1.10;;
66979;SDS011;54048;51.468;-2.572;2022-09-16T10:41:08;1.23;;;0.50;;
66979;SDS011;54048;51.468;-2.572;2022-09-16T10:43:34;1.20;;;0.60;;
66979;SDS011;54048;51.468;-2.572;2022-09-16T10:46:01;1.75;;;0.40;;
66979;SDS011;54048;51.468;-2.572;2022-09-16T10:48:27;1.60;;;0.50;;
66979;SDS011;54048;51.468;-2.572;2022-09-16T10:51:00;2.47;;;0.55;;
66979;SDS011;54048;51.468;-2.572;2022-09-16T10:53:32;1.38;;;0.57;;
66979;SDS011;54048;51.468;-2.572;2022-09-16T10:55:59;3.83;;;0.50;;
66979;SDS011;54048;51.468;-2.572;2022-09-16T10:58:26;0.40;;;0.40;;
66979;SDS011;54048;51.468;-2.572;2022-09-16T11:17:39;0.82;;;0.50;;
66979;SDS011;54048;51.468;-2.572;2022-09-16T11:29:03;1.35;;;0.45;;
66979;SDS011;54048;51.468;-2.572;2022-09-16T11:31:45;2.58;;;0.50;;
66979;SDS011;54048;51.468;-2.572;2022-09-16T11:34:22;0.60;;;0.50;;
66979;SDS011;54048;51.468;-2.572;2022-09-16T11:39:37;2.08;;;0.65;;
66979;SDS011;54048;51.468;-2.572;2022-09-16T11:42:36;1.17;;;0.73;;
66979;SDS011;54048;51.468;-2.572;2022-09-16T11:45:17;0.65;;;0.55;;
66979;SDS011;54048;51.468;-2.572;2022-09-16T11:47:57;5.30;;;0.50;;
66979;SDS011;54048;51.468;-2.572;2022-09-16T11:50:29;2.38;;;0.40;;
66979;SDS011;54048;51.468;-2.572;2022-09-16T11:58:40;2.00;;;0.50;;
66979;SDS011;54048;51.468;-2.572;2022-09-16T12:04:03;1.30;;;0.60;;
66979;SDS011;54048;51.468;-2.572;2022-09-16T12:06:35;3.05;;;0.88;;
66979;SDS011;54048;51.468;-2.572;2022-09-16T12:11:39;1.65;;;0.50;;
66979;SDS011;54048;51.468;-2.572;2022-09-16T12:14:16;1.30;;;1.00;;
66979;SDS011;54048;51.468;-2.572;2022-09-16T12:19:22;0.63;;;0.52;;
66979;SDS011;54048;51.468;-2.572;2022-09-16T12:21:58;1.20;;;0.60;;
66979;SDS011;54048;51.468;-2.572;2022-09-16T12:27:04;3.88;;;0.75;;
66979;SDS011;54048;51.468;-2.572;2022-09-16T12:29:37;0.90;;;0.60;;
66979;SDS011;54048;51.468;-2.572;2022-09-16T12:32:09;2.08;;;0.70;;
66979;SDS011;54048;51.468;-2.572;2022-09-16T12:34:38;1.83;;;0.63;;
66979;SDS011;54048;51.468;-2.572;2022-09-16T12:40:00;1.83;;;0.90;;
66979;SDS011;54048;51.468;-2.572;2022-09-16T12:56:08;4.60;;;1.48;;
66979;SDS011;54048;51.468;-2.572;2022-09-16T13:01:20;0.70;;;0.70;;
66979;SDS011;54048;51.468;-2.572;2022-09-16T13:03:56;2.40;;;0.90;;
66979;SDS011;54048;51.468;-2.572;2022-09-16T13:06:33;2.08;;;0.90;;
66979;SDS011;54048;51.468;-2.572;2022-09-16T13:09:18;1.35;;;0.70;;
66979;SDS011;54048;51.468;-2.572;2022-09-16T13:14:19;2.33;;;0.90;;
66979;SDS011;54048;51.468;-2.572;2022-09-16T13:16:56;1.55;;;0.60;;
66979;SDS011;54048;51.468;-2.572;2022-09-16T13:21:48;1.20;;;0.60;;
66979;SDS011;54048;51.468;-2.572;2022-09-16T13:24:34;0.82;;;0.63;;
66979;SDS011;54048;51.468;-2.572;2022-09-16T13:27:13;2.05;;;0.70;;
66979;SDS011;54048;51.468;-2.572;2022-09-16T13:29:46;2.08;;;0.75;;
66979;SDS011;54048;51.468;-2.572;2022-09-16T13:38:38;1.90;;;0.50;;
66979;SDS011;54048;51.468;-2.572;2022-09-16T13:41:03;0.70;;;0.30;;
66979;SDS011;54048;51.468;-2.572;2022-09-16T13:43:33;0.95;;;0.50;;
66979;SDS011;54048;51.468;-2.572;2022-09-16T13:46:02;1.73;;;0.40;;
66979;SDS011;54048;51.468;-2.572;2022-09-16T13:48:37;1.77;;;0.68;;
66979;SDS011;54048;51.468;-2.572;2022-09-16T13:51:07;2.20;;;0.60;;
66979;SDS011;54048;51.468;-2.572;2022-09-16T13:53:49;1.40;;;0.52;;
66979;SDS011;54048;51.468;-2.572;2022-09-16T13:56:22;0.60;;;0.60;;
66979;SDS011;54048;51.468;-2.572;2022-09-16T14:04:58;0.52;;;0.52;;
66979;SDS011;54048;51.468;-2.572;2022-09-16T14:07:42;1.65;;;0.50;;
66979;SDS011;54048;51.468;-2.572;2022-09-16T14:10:13;0.88;;;0.60;;
66979;SDS011;54048;51.468;-2.572;2022-09-16T14:15:17;1.63;;;0.80;;
66979;SDS011;54048;51.468;-2.572;2022-09-16T14:17:44;1.58;;;0.60;;
66979;SDS011;54048;51.468;-2.572;2022-09-16T14:20:13;0.63;;;0.63;;
66979;SDS011;54048;51.468;-2.572;2022-09-16T14:22:40;1.80;;;0.60;;
66979;SDS011;54048;51.468;-2.572;2022-09-16T14:25:50;1.35;;;0.70;;
66979;SDS011;54048;51.468;-2.572;2022-09-16T14:30:57;0.50;;;0.50;;
66979;SDS011;54048;51.468;-2.572;2022-09-16T14:33:45;1.48;;;0.50;;
66979;SDS011;54048;51.468;-2.572;2022-09-16T14:36:17;0.43;;;0.30;;
66979;SDS011;54048;51.468;-2.572;2022-09-16T14:41:23;1.27;;;0.68;;
66979;SDS011;54048;51.468;-2.572;2022-09-16T14:43:49;1.27;;;0.60;;
66979;SDS011;54048;51.468;-2.572;2022-09-16T14:46:16;5.30;;;0.70;;
66979;SDS011;54048;51.468;-2.572;2022-09-16T14:48:41;3.00;;;0.40;;
66979;SDS011;54048;51.468;-2.572;2022-09-16T14:51:12;0.63;;;0.40;;
66979;SDS011;54048;51.468;-2.572;2022-09-16T14:53:56;2.47;;;0.57;;
66979;SDS011;54048;51.468;-2.572;2022-09-16T14:56:23;0.50;;;0.50;;
66979;SDS011;54048;51.468;-2.572;2022-09-16T14:58:49;1.50;;;0.70;;
66979;SDS011;54048;51.468;-2.572;2022-09-16T15:01:26;1.98;;;0.50;;
66979;SDS011;54048;51.468;-2.572;2022-09-16T15:06:26;0.40;;;0.40;;
66979;SDS011;54048;51.468;-2.572;2022-09-16T15:08:56;1.48;;;0.57;;
66979;SDS011;54048;51.468;-2.572;2022-09-16T15:11:25;2.88;;;0.40;;
66979;SDS011;54048;51.468;-2.572;2022-09-16T15:13:53;0.60;;;0.50;;
66979;SDS011;54048;51.468;-2.572;2022-09-16T15:16:19;2.78;;;0.60;;
66979;SDS011;54048;51.468;-2.572;2022-09-16T15:18:54;0.68;;;0.50;;
66979;SDS011;54048;51.468;-2.572;2022-09-16T15:21:32;0.30;;;0.30;;
66979;SDS011;54048;51.468;-2.572;2022-09-16T15:24:01;1.48;;;0.50;;
66979;SDS011;54048;51.468;-2.572;2022-09-16T15:26:42;0.40;;;0.40;;
66979;SDS011;54048;51.468;-2.572;2022-09-16T15:31:45;2.53;;;0.50;;
66979;SDS011;54048;51.468;-2.572;2022-09-16T15:36:52;3.85;;;0.60;;
66979;SDS011;54048;51.468;-2.572;2022-09-16T15:39:22;1.58;;;0.60;;
66979;SDS011;54048;51.468;-2.572;2022-09-16T15:42:11;0.65;;;0.60;;
66979;SDS011;54048;51.468;-2.572;2022-09-16T15:44:48;0.75;;;0.50;;
66979;SDS011;54048;51.468;-2.572;2022-09-16T15:47:30;0.50;;;0.50;;
66979;SDS011;54048;51.468;-2.572;2022-09-16T15:49:59;2.40;;;0.70;;
66979;SDS011;54048;51.468;-2.572;2022-09-16T15:52:32;0.40;;;0.40;;
66979;SDS011;54048;51.468;-2.572;2022-09-16T15:55:01;0.65;;;0.40;;
66979;SDS011;54048;51.468;-2.572;2022-09-16T15:57:32;1.30;;;0.47;;
66979;SDS011;54048;51.468;-2.572;2022-09-16T16:00:03;0.30;;;0.30;;
66979;SDS011;54048;51.468;-2.572;2022-09-16T16:02:51;1.85;;;0.60;;
66979;SDS011;54048;51.468;-2.572;2022-09-16T16:05:25;1.10;;;0.40;;
66979;SDS011;54048;51.468;-2.572;2022-09-16T16:07:55;1.65;;;0.50;;
66979;SDS011;54048;51.468;-2.572;2022-09-16T16:10:23;1.38;;;0.40;;
66979;SDS011;54048;51.468;-2.572;2022-09-16T16:12:54;0.65;;;0.40;;
66979;SDS011;54048;51.468;-2.572;2022-09-16T16:15:21;1.85;;;0.40;;
66979;SDS011;54048;51.468;-2.572;2022-09-16T16:17:50;1.80;;;0.60;;
66979;SDS011;54048;51.468;-2.572;2022-09-16T16:20:17;1.38;;;0.43;;
66979;SDS011;54048;51.468;-2.572;2022-09-16T16:22:43;1.27;;;0.52;;
66979;SDS011;54048;51.468;-2.572;2022-09-16T16:25:09;0.65;;;0.50;;
66979;SDS011;54048;51.468;-2.572;2022-09-16T16:27:35;0.63;;;0.55;;
66979;SDS011;54048;51.468;-2.572;2022-09-16T16:30:00;1.02;;;0.60;;
66979;SDS011;54048;51.468;-2.572;2022-09-16T16:32:26;1.70;;;0.70;;
66979;SDS011;54048;51.468;-2.572;2022-09-16T16:34:51;2.53;;;0.80;;
66979;SDS011;54048;51.468;-2.572;2022-09-16T16:37:18;2.75;;;1.48;;
66979;SDS011;54048;51.468;-2.572;2022-09-16T16:39:44;0.45;;;0.40;;
66979;SDS011;54048;51.468;-2.572;2022-09-16T16:42:10;3.25;;;1.00;;
66979;SDS011;54048;51.468;-2.572;2022-09-16T16:44:36;3.50;;;0.50;;
66979;SDS011;54048;51.468;-2.572;2022-09-16T16:47:02;0.70;;;0.40;;
66979;SDS011;54048;51.468;-2.572;2022-09-16T16:49:28;1.00;;;0.60;;
66979;SDS011;54048;51.468;-2.572;2022-09-16T16:51:53;0.95;;;0.50;;
66979;SDS011;54048;51.468;-2.572;2022-09-16T16:54:19;3.72;;;0.60;;
66979;SDS011;54048;51.468;-2.572;2022-09-16T16:56:45;1.38;;;0.35;;
66979;SDS011;54048;51.468;-2.572;2022-09-16T16:59:11;1.13;;;0.75;;
66979;SDS011;54048;51.468;-2.572;2022-09-16T17:01:37;0.50;;;0.50;;
66979;SDS011;54048;51.468;-2.572;2022-09-16T17:04:03;0.90;;;0.55;;
66979;SDS011;54048;51.468;-2.572;2022-09-16T17:06:29;1.05;;;0.50;;
66979;SDS011;54048;51.468;-2.572;2022-09-16T17:08:55;3.72;;;0.85;;
66979;SDS011;54048;51.468;-2.572;2022-09-16T17:11:21;2.75;;;0.68;;
66979;SDS011;54048;51.468;-2.572;2022-09-16T17:13:50;1.05;;;0.60;;
66979;SDS011;54048;51.468;-2.572;2022-09-16T17:16:19;1.02;;;0.77;;
66979;SDS011;54048;51.468;-2.572;2022-09-16T17:18:46;3.38;;;0.65;;
66979;SDS011;54048;51.468;-2.572;2022-09-16T17:21:19;1.15;;;0.77;;
66979;SDS011;54048;51.468;-2.572;2022-09-16T17:23:48;0.50;;;0.50;;
66979;SDS011;54048;51.468;-2.572;2022-09-16T17:26:14;0.60;;;0.60;;
66979;SDS011;54048;51.468;-2.572;2022-09-16T17:28:42;1.73;;;0.55;;
66979;SDS011;54048;51.468;-2.572;2022-09-16T17:31:09;2.53;;;0.65;;
66979;SDS011;54048;51.468;-2.572;2022-09-16T17:33:42;2.65;;;0.60;;
66979;SDS011;54048;51.468;-2.572;2022-09-16T17:36:08;2.08;;;0.52;;
66979;SDS011;54048;51.468;-2.572;2022-09-16T17:38:34;0.40;;;0.40;;
66979;SDS011;54048;51.468;-2.572;2022-09-16T17:41:10;3.30;;;0.40;;
66979;SDS011;54048;51.468;-2.572;2022-09-16T17:43:40;0.40;;;0.40;;
66979;SDS011;54048;51.468;-2.572;2022-09-16T17:46:07;4.30;;;0.50;;
66979;SDS011;54048;51.468;-2.572;2022-09-16T17:48:36;0.85;;;0.52;;
66979;SDS011;54048;51.468;-2.572;2022-09-16T17:51:02;0.40;;;0.40;;
66979;SDS011;54048;51.468;-2.572;2022-09-16T17:53:28;3.63;;;0.60;;
66979;SDS011;54048;51.468;-2.572;2022-09-16T17:56:01;1.00;;;0.50;;
66979;SDS011;54048;51.468;-2.572;2022-09-16T17:58:28;1.08;;;0.40;;